Time;durP1;ratioP1;P1;durP2;ratioP2;P2;SDS_P1;SDS_P2;PMS_P1;PMS_P2;Temp;Humidity;BMP_temperature;BMP_pressure;BME280_temperature;BME280_humidity;BME280_pressure;Samples;Min_cycle;Max_cycle;Signal;HPM_P1;HPM_P2
2021/11/05 00:01:39;;;;;;;3.45;2.85;;;;;;;5.91;100.00;99889.59;5078030;28;20047;-67
2021/11/05 00:04:06;;;;;;;4.03;3.42;;;;;;;5.98;100.00;99894.44;5080634;28;20056;-68
2021/11/05 00:06:33;;;;;;;4.45;3.25;;;;;;;5.89;100.00;99905.31;5092875;28;20538;-68
2021/11/05 00:09:00;;;;;;;5.05;3.88;;;;;;;5.86;100.00;99913.34;5084285;28;20048;-68
2021/11/05 00:11:28;;;;;;;5.13;3.75;;;;;;;5.92;100.00;99910.44;5109778;28;20047;-67
2021/11/05 00:13:55;;;;;;;4.95;4.45;;;;;;;5.89;100.00;99922.78;5054842;28;20045;-68
2021/11/05 00:16:22;;;;;;;5.82;4.45;;;;;;;5.87;100.00;99917.63;5062879;28;20105;-69
2021/11/05 00:18:49;;;;;;;6.82;4.28;;;;;;;5.95;100.00;99925.97;5083224;28;20406;-67
2021/11/05 00:21:16;;;;;;;8.50;3.78;;;;;;;5.96;100.00;99926.81;5083396;28;20044;-69
2021/11/05 00:23:43;;;;;;;6.18;3.85;;;;;;;5.84;100.00;99933.44;5087839;28;20048;-68
2021/11/05 00:26:11;;;;;;;5.97;3.05;;;;;;;5.82;100.00;99941.38;5077988;28;20039;-68
2021/11/05 00:28:38;;;;;;;4.28;2.65;;;;;;;5.69;100.00;99936.84;5081032;28;20055;-67
2021/11/05 00:31:06;;;;;;;4.38;3.03;;;;;;;5.66;100.00;99939.59;5069871;28;20406;-67
2021/11/05 00:33:33;;;;;;;4.28;2.67;;;;;;;5.66;100.00;99950.03;5081429;28;20058;-69
2021/11/05 00:36:00;;;;;;;4.13;2.72;;;;;;;5.73;100.00;99952.28;5061631;28;20051;-69
2021/11/05 00:38:27;;;;;;;4.35;2.75;;;;;;;5.75;100.00;99954.81;5091737;28;20056;-67
2021/11/05 00:40:54;;;;;;;4.57;2.85;;;;;;;5.78;100.00;99952.91;5084558;28;20043;-70
2021/11/05 00:43:22;;;;;;;5.03;3.55;;;;;;;5.74;100.00;99959.19;5089237;28;20064;-68
2021/11/05 00:45:49;;;;;;;3.80;3.05;;;;;;;5.66;100.00;99961.31;5081684;28;20430;-69
2021/11/05 00:48:16;;;;;;;4.65;3.17;;;;;;;5.71;100.00;99963.72;5068663;28;20059;-69
2021/11/05 00:50:44;;;;;;;3.45;2.85;;;;;;;5.56;100.00;99971.38;5088497;28;20047;-68
2021/11/05 00:53:11;;;;;;;4.18;3.10;;;;;;;5.52;100.00;99972.44;5083782;28;20106;-67
2021/11/05 00:55:38;;;;;;;5.43;3.35;;;;;;;5.57;100.00;99978.28;5091283;28;20052;-69
2021/11/05 00:58:06;;;;;;;5.93;2.90;;;;;;;5.58;100.00;99976.53;5088662;28;20059;-69
2021/11/05 01:00:33;;;;;;;3.95;2.88;;;;;;;5.62;100.00;99982.44;5074513;28;20044;-68
2021/11/05 01:03:01;;;;;;;3.13;2.83;;;;;;;5.62;100.00;99987.66;5100918;28;20052;-69
2021/11/05 01:05:28;;;;;;;3.13;2.05;;;;;;;5.45;100.00;99989.34;5082178;28;20566;-68
2021/11/05 01:07:55;;;;;;;3.70;2.10;;;;;;;5.58;100.00;100000.88;5068311;28;20047;-67
2021/11/05 01:10:22;;;;;;;4.30;2.17;;;;;;;5.60;100.00;99992.97;5068926;28;20070;-68
2021/11/05 01:12:49;;;;;;;5.07;2.20;;;;;;;5.46;100.00;100005.84;5073978;28;20047;-67
2021/11/05 01:15:17;;;;;;;2.58;2.30;;;;;;;5.53;100.00;100012.44;5058000;28;20066;-68
2021/11/05 01:17:44;;;;;;;2.47;2.00;;;;;;;5.50;100.00;100005.63;5043605;28;20053;-67
2021/11/05 01:20:14;;;;;;;3.08;2.17;;;;;;;5.65;100.00;100013.63;5062670;28;20055;-70
2021/11/05 01:22:42;;;;;;;2.13;1.67;;;;;;;5.62;100.00;100011.16;5076041;28;20047;-68
2021/11/05 01:25:13;;;;;;;3.35;2.03;;;;;;;5.61;100.00;100012.94;5077347;28;20537;-69
2021/11/05 01:27:44;;;;;;;4.05;1.88;;;;;;;5.67;100.00;100009.19;5084681;28;20578;-68
2021/11/05 01:30:13;;;;;;;9.05;2.97;;;;;;;5.65;100.00;100011.88;5072744;28;20505;-67
2021/11/05 01:32:40;;;;;;;3.35;1.70;;;;;;;5.61;100.00;100032.97;5067873;28;20048;-69
2021/11/05 01:35:09;;;;;;;2.35;1.60;;;;;;;5.53;100.00;100039.41;5058847;28;20052;-68
2021/11/05 01:37:37;;;;;;;3.20;1.65;;;;;;;5.54;100.00;100041.13;5089931;28;20062;-68
2021/11/05 01:40:05;;;;;;;4.43;1.90;;;;;;;5.58;100.00;100047.88;5082099;28;20052;-68
2021/11/05 01:42:36;;;;;;;2.67;1.90;;;;;;;5.62;100.00;100055.56;5080433;28;20046;-68
2021/11/05 01:45:04;;;;;;;3.45;2.05;;;;;;;5.64;100.00;100058.97;5084262;28;20083;-67
2021/11/05 01:47:32;;;;;;;4.43;2.10;;;;;;;5.65;100.00;100063.25;5092359;28;20624;-67
2021/11/05 01:49:59;;;;;;;3.58;2.10;;;;;;;5.81;100.00;100062.47;5064304;28;20123;-68
2021/11/05 01:52:26;;;;;;;3.03;2.03;;;;;;;5.79;100.00;100071.28;5094253;28;20433;-67
2021/11/05 01:54:53;;;;;;;3.83;2.05;;;;;;;5.78;100.00;100070.44;5088578;28;20409;-67
2021/11/05 01:57:21;;;;;;;3.30;2.00;;;;;;;5.78;100.00;100069.59;5088633;28;20052;-68
2021/11/05 01:59:50;;;;;;;2.65;2.20;;;;;;;5.66;100.00;100083.22;5061689;28;20044;-69
2021/11/05 02:02:18;;;;;;;2.80;2.10;;;;;;;5.70;100.00;100079.53;5065068;28;20048;-67
2021/11/05 02:04:45;;;;;;;3.25;2.88;;;;;;;5.77;100.00;100091.41;5074480;28;20047;-69
2021/11/05 02:07:13;;;;;;;4.55;2.60;;;;;;;5.79;100.00;100089.56;5081767;28;20048;-68
2021/11/05 02:09:42;;;;;;;4.82;2.42;;;;;;;5.79;100.00;100086.94;5069177;28;20044;-67
2021/11/05 02:12:10;;;;;;;3.50;2.58;;;;;;;5.68;100.00;100094.44;5078195;28;20134;-69
2021/11/05 02:14:38;;;;;;;3.13;2.50;;;;;;;5.67;100.00;100104.03;5044045;28;20047;-69
2021/11/05 02:17:09;;;;;;;2.65;1.90;;;;;;;5.70;100.00;100103.88;5076326;28;20060;-68
2021/11/05 02:19:36;;;;;;;3.53;2.10;;;;;;;5.69;100.00;100110.03;5064229;28;20072;-68
2021/11/05 02:22:04;;;;;;;3.00;1.90;;;;;;;5.77;100.00;100120.13;5096776;28;20086;-67
2021/11/05 02:24:31;;;;;;;2.30;1.95;;;;;;;5.78;100.00;100127.03;5077261;28;20542;-67
2021/11/05 02:26:59;;;;;;;3.38;1.83;;;;;;;5.78;100.00;100125.28;5080450;28;20059;-68
2021/11/05 02:29:29;;;;;;;2.72;1.92;;;;;;;5.73;100.00;100129.88;5069367;28;20044;-68
2021/11/05 02:31:57;;;;;;;2.50;2.03;;;;;;;5.74;100.00;100136.78;5047413;28;20072;-68
2021/11/05 02:34:24;;;;;;;2.90;1.90;;;;;;;5.76;100.00;100131.47;5080354;28;20063;-68
2021/11/05 02:36:51;;;;;;;4.55;2.47;;;;;;;5.68;100.00;100139.69;5081324;28;20059;-67
2021/11/05 02:39:18;;;;;;;2.95;2.08;;;;;;;5.72;100.00;100140.38;5078979;28;20059;-67
2021/11/05 02:41:48;;;;;;;3.50;1.80;;;;;;;5.77;100.00;100144.47;5076653;28;20051;-67
2021/11/05 02:44:15;;;;;;;3.40;2.05;;;;;;;5.83;100.00;100151.19;5056124;28;20396;-67
2021/11/05 02:46:42;;;;;;;2.30;1.77;;;;;;;5.75;100.00;100156.75;5067151;28;20054;-68
2021/11/05 02:49:10;;;;;;;2.92;2.10;;;;;;;5.76;100.00;100161.09;5075973;28;20044;-67
2021/11/05 02:51:38;;;;;;;3.15;1.90;;;;;;;5.81;100.00;100168.69;5062948;28;20074;-67
2021/11/05 02:54:06;;;;;;;4.38;1.95;;;;;;;5.74;100.00;100169.91;5084237;28;20048;-68
2021/11/05 02:56:33;;;;;;;3.05;1.90;;;;;;;5.72;100.00;100183.03;5080852;28;20059;-70
2021/11/05 02:59:02;;;;;;;3.88;2.10;;;;;;;5.73;100.00;100186.50;5061284;28;20069;-68
2021/11/05 03:01:29;;;;;;;4.88;2.80;;;;;;;5.70;100.00;100192.69;5059360;28;20037;-67
2021/11/05 03:04:01;;;;;;;2.90;1.92;;;;;;;5.71;100.00;100196.13;5093516;28;20042;-66
2021/11/05 03:06:37;;;;;;;5.30;2.67;;;;;;;5.68;100.00;100194.53;5064432;28;20050;-66
2021/11/05 03:09:09;;;;;;;3.75;2.53;;;;;;;5.73;100.00;100197.78;5065879;28;20050;-67
2021/11/05 03:11:38;;;;;;;4.75;3.20;;;;;;;5.88;100.00;100201.44;5050378;28;20028;-67
2021/11/05 03:14:06;;;;;;;4.53;2.92;;;;;;;5.92;100.00;100207.41;5094893;28;20143;-67
2021/11/05 03:16:35;;;;;;;5.55;3.30;;;;;;;5.79;100.00;100218.38;5049690;28;20079;-67
2021/11/05 03:19:03;;;;;;;3.80;2.88;;;;;;;5.97;100.00;100211.50;5072485;28;20157;-67
2021/11/05 03:21:30;;;;;;;3.63;3.15;;;;;;;6.01;100.00;100222.66;5100046;28;20032;-68
2021/11/05 03:23:58;;;;;;;5.63;3.83;;;;;;;6.03;100.00;100229.53;5051344;28;20560;-69
2021/11/05 03:26:26;;;;;;;5.75;3.45;;;;;;;6.11;100.00;100228.31;5102930;28;20056;-68
2021/11/05 03:28:53;;;;;;;6.43;4.25;;;;;;;5.97;100.00;100240.25;5076015;28;20545;-66
2021/11/05 03:31:20;;;;;;;5.05;3.55;;;;;;;6.02;100.00;100243.47;5059626;28;20540;-69
2021/11/05 03:33:48;;;;;;;10.18;5.10;;;;;;;6.05;100.00;100250.34;5091196;28;20051;-69
2021/11/05 03:36:15;;;;;;;6.22;4.78;;;;;;;5.99;100.00;100250.59;5071153;28;20107;-67
2021/11/05 03:38:42;;;;;;;9.45;4.75;;;;;;;6.11;100.00;100260.50;5081714;28;20048;-68
2021/11/05 03:41:10;;;;;;;7.03;5.15;;;;;;;6.19;100.00;100262.78;5095108;28;20143;-69
2021/11/05 03:43:39;;;;;;;8.65;4.93;;;;;;;6.32;100.00;100269.13;5054540;28;20048;-68
2021/11/05 03:46:07;;;;;;;6.75;5.30;;;;;;;6.33;100.00;100271.66;5058605;28;20133;-68
2021/11/05 03:48:35;;;;;;;6.25;5.25;;;;;;;6.31;100.00;100272.66;5078431;28;20052;-67
2021/11/05 03:51:04;;;;;;;5.93;5.32;;;;;;;6.31;100.00;100267.44;5091211;28;20042;-67
2021/11/05 03:53:33;;;;;;;6.13;5.32;;;;;;;6.41;100.00;100276.53;5076272;28;20052;-67
2021/11/05 03:56:00;;;;;;;7.72;5.72;;;;;;;6.25;100.00;100280.78;5069287;28;20048;-68
2021/11/05 03:58:27;;;;;;;7.43;5.88;;;;;;;6.41;100.00;100284.38;5072469;28;20143;-68
2021/11/05 04:00:55;;;;;;;9.18;5.57;;;;;;;6.43;100.00;100279.91;5080957;28;20044;-68
2021/11/05 04:03:23;;;;;;;7.30;5.30;;;;;;;6.31;100.00;100291.81;5082727;28;20055;-68
2021/11/05 04:05:52;;;;;;;6.60;5.57;;;;;;;6.30;100.00;100297.09;5099531;28;20532;-68
2021/11/05 04:08:19;;;;;;;9.05;5.47;;;;;;;6.26;100.00;100292.91;5069720;28;20044;-68
2021/11/05 04:10:47;;;;;;;9.35;5.95;;;;;;;6.33;100.00;100308.25;5080706;28;20036;-67
2021/11/05 04:13:15;;;;;;;7.40;6.03;;;;;;;6.37;100.00;100302.91;5097900;28;20049;-67
2021/11/05 04:15:42;;;;;;;10.60;6.43;;;;;;;6.34;100.00;100312.56;5079796;28;20058;-66
2021/11/05 04:18:09;;;;;;;6.65;6.05;;;;;;;6.26;100.00;100312.09;5081314;28;20091;-68
2021/11/05 04:20:36;;;;;;;7.47;6.68;;;;;;;6.43;100.00;100306.06;5063784;28;20078;-67
2021/11/05 04:23:08;;;;;;;8.15;6.82;;;;;;;6.48;100.00;100318.91;5101399;28;20078;-68
2021/11/05 04:25:35;;;;;;;10.38;7.50;;;;;;;6.39;100.00;100322.81;5084030;28;20143;-67
2021/11/05 04:28:07;;;;;;;7.60;6.80;;;;;;;6.42;100.00;100322.66;5049943;28;20527;-68
2021/11/05 04:30:36;;;;;;;9.05;7.20;;;;;;;6.40;100.00;100334.13;5076301;28;20051;-67
2021/11/05 04:33:04;;;;;;;12.50;8.07;;;;;;;6.34;100.00;100330.00;5057567;28;20049;-67
2021/11/05 04:35:32;;;;;;;9.55;8.55;;;;;;;6.37;100.00;100329.03;5066794;28;20057;-67
2021/11/05 04:37:59;;;;;;;12.20;9.43;;;;;;;6.48;100.00;100335.44;5062741;28;20044;-67
2021/11/05 04:40:26;;;;;;;10.93;9.10;;;;;;;6.51;100.00;100337.94;5101857;28;20039;-67
2021/11/05 04:42:54;;;;;;;11.68;9.95;;;;;;;6.55;100.00;100344.72;5062470;28;20054;-67
2021/11/05 04:45:22;;;;;;;12.65;9.63;;;;;;;6.57;100.00;100342.91;5066481;28;20052;-67
2021/11/05 04:47:49;;;;;;;11.13;9.80;;;;;;;6.63;100.00;100344.38;5103394;28;20168;-67
2021/11/05 04:50:17;;;;;;;12.77;10.55;;;;;;;6.51;100.00;100355.38;5067178;28;20043;-68
2021/11/05 04:52:47;;;;;;;14.43;12.23;;;;;;;6.57;100.00;100358.59;5088412;28;20040;-68
2021/11/05 04:55:17;;;;;;;14.60;10.95;;;;;;;6.66;100.00;100356.44;5084771;28;20043;-67
2021/11/05 04:57:46;;;;;;;16.00;13.40;;;;;;;6.65;100.00;100358.22;5074350;28;20051;-66
2021/11/05 05:00:14;;;;;;;17.63;13.93;;;;;;;6.58;100.00;100362.88;5087272;28;20409;-67
2021/11/05 05:02:42;;;;;;;15.75;12.98;;;;;;;6.55;100.00;100378.72;5066550;28;20036;-68
2021/11/05 05:05:10;;;;;;;15.45;13.82;;;;;;;6.61;100.00;100382.81;5087173;28;20534;-68
2021/11/05 05:07:37;;;;;;;17.17;14.48;;;;;;;6.63;100.00;100380.13;5059550;28;20053;-68
2021/11/05 05:10:05;;;;;;;19.08;15.98;;;;;;;6.45;100.00;100387.06;5053575;28;20052;-68
2021/11/05 05:12:36;;;;;;;21.45;16.95;;;;;;;6.54;100.00;100387.50;5050821;28;20059;-69
2021/11/05 05:15:05;;;;;;;25.75;18.20;;;;;;;6.60;100.00;100388.97;5051225;28;20617;-69
2021/11/05 05:17:33;;;;;;;25.83;18.73;;;;;;;6.53;100.00;100387.56;5085021;28;20149;-68
2021/11/05 05:20:03;;;;;;;22.88;18.55;;;;;;;6.62;100.00;100391.50;5068486;28;20056;-68
2021/11/05 05:22:30;;;;;;;26.50;19.40;;;;;;;6.55;100.00;100388.34;5067667;28;20048;-67
2021/11/05 05:25:03;;;;;;;24.65;20.52;;;;;;;6.56;100.00;100397.88;5084568;28;20052;-69
2021/11/05 05:27:30;;;;;;;26.70;21.42;;;;;;;6.63;100.00;100407.13;5069610;28;20076;-67
2021/11/05 05:29:58;;;;;;;24.08;20.00;;;;;;;6.48;100.00;100418.28;5054542;28;20075;-67
2021/11/05 05:32:25;;;;;;;27.17;20.67;;;;;;;6.62;100.00;100429.00;5084332;28;20059;-65
2021/11/05 05:34:52;;;;;;;26.73;20.77;;;;;;;6.57;100.00;100430.94;5041485;28;20040;-65
2021/11/05 05:37:20;;;;;;;27.15;20.90;;;;;;;6.55;100.00;100428.41;5062570;28;20044;-66
2021/11/05 05:39:47;;;;;;;29.20;21.98;;;;;;;6.63;100.00;100437.69;5048989;28;20215;-66
2021/11/05 05:42:14;;;;;;;29.52;21.83;;;;;;;6.62;100.00;100449.03;5062692;28;20083;-67
2021/11/05 05:44:43;;;;;;;30.38;22.65;;;;;;;6.67;100.00;100450.56;5064124;28;20691;-69
2021/11/05 05:47:11;;;;;;;27.63;22.20;;;;;;;6.63;100.00;100451.59;5062355;28;20584;-70
2021/11/05 05:49:41;;;;;;;29.23;23.20;;;;;;;6.55;100.00;100454.56;5079328;28;20072;-68
2021/11/05 05:52:08;;;;;;;29.02;22.90;;;;;;;6.62;100.00;100462.13;5071512;28;20097;-67
2021/11/05 05:54:35;;;;;;;29.70;23.10;;;;;;;6.65;100.00;100465.44;5061759;28;20400;-68
2021/11/05 05:57:03;;;;;;;32.08;25.27;;;;;;;6.73;100.00;100460.72;5072991;28;20088;-67
2021/11/05 05:59:30;;;;;;;35.30;25.65;;;;;;;6.75;100.00;100471.94;5088795;28;20047;-66
2021/11/05 06:01:59;;;;;;;32.05;24.30;;;;;;;6.76;100.00;100476.28;5087840;28;20379;-68
2021/11/05 06:04:29;;;;;;;32.28;23.38;;;;;;;6.66;100.00;100476.75;5055204;28;20135;-68
2021/11/05 06:06:56;;;;;;;30.80;23.33;;;;;;;6.70;100.00;100483.56;5086911;28;20048;-69
2021/11/05 06:09:23;;;;;;;35.05;24.70;;;;;;;6.74;100.00;100487.72;5080494;28;20139;-68
2021/11/05 06:11:50;;;;;;;30.33;22.45;;;;;;;6.73;100.00;100486.03;5069393;28;20052;-69
2021/11/05 06:14:18;;;;;;;35.03;25.40;;;;;;;6.79;100.00;100498.84;5051740;28;20146;-69
2021/11/05 06:16:45;;;;;;;30.98;23.98;;;;;;;6.83;100.00;100500.41;5084083;28;20526;-69
2021/11/05 06:19:12;;;;;;;27.85;23.10;;;;;;;6.77;100.00;100511.16;5087948;28;20082;-70
2021/11/05 06:21:39;;;;;;;32.60;24.05;;;;;;;6.79;100.00;100511.91;5075112;28;20040;-68
2021/11/05 06:24:07;;;;;;;29.58;22.95;;;;;;;6.73;100.00;100514.81;5065959;28;20403;-67
2021/11/05 06:26:35;;;;;;;30.13;23.65;;;;;;;6.65;100.00;100519.53;5087373;28;20155;-68
2021/11/05 06:29:03;;;;;;;36.65;22.73;;;;;;;6.72;100.00;100526.22;5089561;28;20044;-68
2021/11/05 06:31:33;;;;;;;40.83;22.73;;;;;;;6.64;100.00;100531.78;5047559;28;20070;-69
2021/11/05 06:34:03;;;;;;;31.98;23.42;;;;;;;6.67;100.00;100536.03;5058060;28;20121;-67
2021/11/05 06:36:31;;;;;;;33.72;22.75;;;;;;;6.75;100.00;100539.13;5079479;28;20045;-69
2021/11/05 06:38:59;;;;;;;32.00;23.05;;;;;;;6.69;100.00;100544.66;5066222;28;20507;-71
2021/11/05 06:41:26;;;;;;;33.72;24.10;;;;;;;6.82;100.00;100554.50;5058490;28;20063;-68
2021/11/05 06:43:54;;;;;;;31.40;23.73;;;;;;;6.73;100.00;100552.28;5077439;28;20132;-69
2021/11/05 06:46:22;;;;;;;28.88;21.92;;;;;;;6.72;100.00;100557.59;5062396;28;20052;-70
2021/11/05 06:48:51;;;;;;;34.35;23.45;;;;;;;6.83;100.00;100574.50;5056058;28;20173;-71
2021/11/05 06:51:18;;;;;;;32.97;23.00;;;;;;;6.93;100.00;100574.09;5076801;28;20123;-70
2021/11/05 06:53:46;;;;;;;32.45;21.60;;;;;;;6.80;100.00;100579.06;5088994;28;20051;-69
2021/11/05 06:56:14;;;;;;;31.58;22.25;;;;;;;6.71;100.00;100584.66;5059024;28;20082;-69
2021/11/05 06:58:41;;;;;;;33.08;22.65;;;;;;;6.75;100.00;100592.31;5070620;28;20048;-71
2021/11/05 07:01:11;;;;;;;32.50;19.77;;;;;;;6.68;100.00;100605.75;5059179;28;20729;-68
2021/11/05 07:03:38;;;;;;;31.48;20.73;;;;;;;6.75;100.00;100599.31;5077044;28;20106;-69
2021/11/05 07:06:06;;;;;;;31.55;20.05;;;;;;;6.75;100.00;100609.78;5081283;28;20647;-68
2021/11/05 07:08:36;;;;;;;28.70;20.67;;;;;;;6.73;100.00;100612.47;5064710;28;20063;-69
2021/11/05 07:11:04;;;;;;;31.08;21.73;;;;;;;6.85;100.00;100611.09;5063596;28;20047;-70
2021/11/05 07:13:31;;;;;;;33.70;22.38;;;;;;;6.96;100.00;100619.31;5086016;28;20080;-67
2021/11/05 07:15:59;;;;;;;39.60;23.27;;;;;;;6.82;100.00;100637.38;5046033;28;20398;-69
2021/11/05 07:18:28;;;;;;;37.20;21.50;;;;;;;6.85;100.00;100642.50;5062963;28;20093;-66
2021/11/05 07:20:56;;;;;;;30.30;21.50;;;;;;;6.92;100.00;100643.06;5070803;28;20071;-69
2021/11/05 07:23:24;;;;;;;27.45;20.88;;;;;;;6.90;100.00;100652.75;5051772;28;20050;-69
2021/11/05 07:26:02;;;;;;;26.08;18.98;;;;;;;6.91;100.00;100655.31;5058459;28;20044;-71
2021/11/05 07:28:30;;;;;;;30.95;21.50;;;;;;;6.83;100.00;100653.00;5066415;28;20052;-70
2021/11/05 07:30:59;;;;;;;39.13;24.50;;;;;;;6.82;100.00;100653.94;5056569;28;20156;-66
2021/11/05 07:33:27;;;;;;;35.53;23.20;;;;;;;6.89;100.00;100664.13;5079063;28;20052;-69
2021/11/05 07:35:54;;;;;;;41.53;25.90;;;;;;;6.98;100.00;100664.59;5066822;28;20071;-67
2021/11/05 07:38:21;;;;;;;51.92;25.58;;;;;;;6.91;100.00;100663.16;5086427;28;20606;-67
2021/11/05 07:40:49;;;;;;;36.30;23.88;;;;;;;6.81;100.00;100667.94;5081948;28;20048;-67
2021/11/05 07:43:17;;;;;;;31.83;22.35;;;;;;;6.89;100.00;100678.09;5083984;28;20550;-68
2021/11/05 07:45:44;;;;;;;30.73;21.75;;;;;;;7.04;100.00;100685.25;5081500;28;20044;-67
2021/11/05 07:48:23;;;;;;;37.30;22.42;;;;;;;7.21;100.00;100683.69;5085094;28;20139;-70
2021/11/05 07:55:19;;;;;;;33.58;21.90;;;;;;;7.27;100.00;100696.50;5017321;28;20028;-68
2021/11/05 07:58:13;;;;;;;38.53;20.00;;;;;;;7.63;100.00;100707.09;5036297;28;20830;-69
2021/11/05 08:01:42;;;;;;;28.52;17.63;;;;;;;7.27;100.00;100713.06;5003042;28;20073;-67
2021/11/05 08:04:24;;;;;;;23.63;18.15;;;;;;;7.41;100.00;100722.91;5004119;28;20046;-65
2021/11/05 08:07:08;;;;;;;25.15;18.25;;;;;;;7.60;100.00;100718.56;4972092;28;20081;-68
2021/11/05 08:09:48;;;;;;;29.50;18.70;;;;;;;7.58;100.00;100728.28;4970956;28;20050;-72
2021/11/05 08:12:26;;;;;;;25.02;17.25;;;;;;;7.37;100.00;100737.06;4988576;28;20080;-67
2021/11/05 08:15:13;;;;;;;30.65;18.92;;;;;;;7.28;100.00;100737.47;4989026;28;20045;-68
2021/11/05 08:18:48;;;;;;;31.67;20.05;;;;;;;7.52;100.00;100746.00;5002701;28;20057;-68
2021/11/05 08:22:27;;;;;;;;;;;;;;;;;;;;;
2021/11/05 08:25:26;;;;;;;;;;;;;;;;;;;;;
2021/11/05 08:28:27;;;;;;;22.15;17.23;;;;;;;7.57;100.00;100752.78;5065038;28;20044;-68
2021/11/05 08:31:25;;;;;;;26.60;16.85;;;;;;;7.78;100.00;100756.19;5069225;28;20109;-71
2021/11/05 08:34:37;;;;;;;24.55;15.95;;;;;;;7.59;100.00;100771.03;5062915;28;20044;-69
2021/11/05 08:37:26;;;;;;;27.20;16.48;;;;;;;7.54;100.00;100766.00;5072817;28;20051;-68
2021/11/05 08:40:20;;;;;;;23.05;16.17;;;;;;;7.53;100.00;100769.53;5050349;28;20668;-70
2021/11/05 08:42:57;;;;;;;37.22;17.35;;;;;;;7.69;100.00;100769.69;5069175;28;20358;-71
2021/11/05 08:45:53;;;;;;;23.60;16.30;;;;;;;7.74;100.00;100775.56;5045378;28;20044;-73
2021/11/05 08:48:56;;;;;;;21.73;14.95;;;;;;;8.03;100.00;100782.13;5020725;28;20049;-69
2021/11/05 08:51:47;;;;;;;22.67;15.93;;;;;;;8.21;100.00;100782.22;5040136;28;20090;-70
2021/11/05 08:54:20;;;;;;;22.70;16.25;;;;;;;8.11;100.00;100790.50;5064239;28;20051;-71
2021/11/05 08:57:04;;;;;;;23.30;16.65;;;;;;;8.13;100.00;100788.66;5054409;28;20421;-71
2021/11/05 08:59:53;;;;;;;23.00;15.32;;;;;;;7.91;100.00;100787.94;5054458;28;20044;-72
2021/11/05 09:02:34;;;;;;;24.80;15.88;;;;;;;7.95;100.00;100799.13;5048590;28;20074;-71
2021/11/05 09:05:29;;;;;;;24.05;15.65;;;;;;;7.86;100.00;100808.25;5049203;28;20123;-71
2021/11/05 09:08:48;;;;;;;22.02;14.32;;;;;;;7.67;100.00;100810.84;5059095;28;20478;-68
2021/11/05 09:11:41;;;;;;;23.38;15.50;;;;;;;7.96;100.00;100809.53;5040870;28;20280;-68
2021/11/05 09:14:16;;;;;;;28.70;15.73;;;;;;;7.85;100.00;100823.16;5055612;28;20060;-68
2021/11/05 09:17:09;;;;;;;22.88;14.45;;;;;;;8.01;100.00;100828.53;5076684;28;20040;-68
2021/11/05 09:20:08;;;;;;;21.55;15.00;;;;;;;8.07;100.00;100820.41;5080553;28;20123;-68
2021/11/05 09:22:51;;;;;;;20.75;13.00;;;;;;;7.70;100.00;100836.94;5045449;28;20048;-68
2021/11/05 09:25:46;;;;;;;19.95;12.10;;;;;;;8.02;100.00;100832.88;5050295;28;20052;-67
2021/11/05 09:28:47;;;;;;;21.48;12.52;;;;;;;7.98;100.00;100840.94;5079095;28;20097;-68
2021/11/05 09:31:42;;;;;;;16.83;11.45;;;;;;;8.36;100.00;100840.06;5058775;28;20050;-67
2021/11/05 09:34:13;;;;;;;17.83;10.90;;;;;;;8.40;100.00;100846.03;5044764;28;20032;-67
2021/11/05 09:37:16;;;;;;;17.30;10.95;;;;;;;8.42;100.00;100851.22;5028160;28;20045;-69
2021/11/05 09:40:47;;;;;;;12.95;9.52;;;;;;;8.49;100.00;100850.84;5025738;28;20075;-69
2021/11/05 09:43:24;;;;;;;15.13;9.23;;;;;;;8.23;100.00;100862.50;5046405;28;20442;-66
2021/11/05 09:45:51;;;;;;;13.30;8.65;;;;;;;8.18;100.00;100859.25;5074787;28;20048;-66
2021/11/05 09:48:21;;;;;;;13.70;7.57;;;;;;;8.14;100.00;100862.94;5065202;28;20052;-66
2021/11/05 09:50:51;;;;;;;13.27;7.75;;;;;;;8.23;100.00;100869.53;5063829;28;20081;-68
2021/11/05 09:53:24;;;;;;;10.07;7.30;;;;;;;8.02;100.00;100879.22;5061800;28;20065;-68
2021/11/05 09:55:52;;;;;;;15.70;8.15;;;;;;;8.28;100.00;100880.66;5047554;28;20097;-67
2021/11/05 09:58:24;;;;;;;11.90;8.07;;;;;;;8.31;100.00;100888.41;5056167;28;20048;-66
2021/11/05 10:00:53;;;;;;;15.57;8.20;;;;;;;8.62;100.00;100887.88;5044734;28;20066;-69
2021/11/05 10:03:20;;;;;;;14.80;8.15;;;;;;;8.60;100.00;100887.97;5063651;28;20055;-66
2021/11/05 10:05:51;;;;;;;16.52;9.68;;;;;;;8.63;100.00;100889.56;5079538;28;20127;-65
2021/11/05 10:08:44;;;;;;;14.57;9.60;;;;;;;8.35;100.00;100905.72;5057007;28;20052;-67
2021/11/05 10:11:46;;;;;;;16.63;11.43;;;;;;;8.22;100.00;100917.66;5049549;28;20073;-67
2021/11/05 10:14:24;;;;;;;15.82;10.13;;;;;;;8.19;100.00;100908.16;5050404;28;20502;-67
2021/11/05 10:17:00;;;;;;;13.27;7.50;;;;;;;8.17;100.00;100917.88;5085456;28;20059;-65
2021/11/05 10:19:47;;;;;;;9.57;6.65;;;;;;;8.39;100.00;100922.19;5060458;28;21229;-65
2021/11/05 10:22:50;;;;;;;13.15;5.88;;;;;;;8.51;100.00;100927.75;5075557;28;20043;-67
2021/11/05 10:25:27;;;;;;;9.85;5.50;;;;;;;8.83;100.00;100928.03;5065841;28;20375;-66
2021/11/05 10:28:03;;;;;;;9.20;6.45;;;;;;;8.80;100.00;100933.41;5053181;28;20044;-67
2021/11/05 10:30:31;;;;;;;17.20;6.75;;;;;;;8.66;100.00;100939.31;5073353;28;20044;-66
2021/11/05 10:33:00;;;;;;;13.40;7.18;;;;;;;8.51;100.00;100942.59;5067454;28;20044;-66
2021/11/05 10:35:28;;;;;;;10.60;6.50;;;;;;;8.39;100.00;100944.03;5070872;28;20060;-67
2021/11/05 10:38:00;;;;;;;8.88;5.18;;;;;;;8.42;100.00;100956.16;5051491;28;20514;-66
2021/11/05 10:40:34;;;;;;;14.75;6.30;;;;;;;8.31;100.00;100953.97;5085359;28;20052;-66
2021/11/05 10:43:03;;;;;;;9.98;4.82;;;;;;;8.35;100.00;100958.16;5082819;28;20062;-66
2021/11/05 10:45:30;;;;;;;14.40;5.93;;;;;;;8.50;100.00;100965.38;5059747;28;20051;-68
2021/11/05 10:47:59;;;;;;;8.73;6.68;;;;;;;8.90;100.00;100970.59;5078749;28;20532;-66
2021/11/05 10:50:45;;;;;;;7.18;5.90;;;;;;;8.94;100.00;100966.91;5078516;28;20127;-66
2021/11/05 10:53:15;;;;;;;9.70;5.30;;;;;;;9.05;100.00;100973.38;5080512;28;20052;-66
2021/11/05 10:55:48;;;;;;;10.98;5.82;;;;;;;9.10;99.53;100978.41;5045916;28;20040;-65
2021/11/05 10:58:18;;;;;;;9.57;4.57;;;;;;;9.12;99.14;100979.16;5078693;28;20490;-66
2021/11/05 11:00:46;;;;;;;7.65;4.50;;;;;;;8.83;99.47;100980.53;5047675;28;20517;-66
2021/11/05 11:03:16;;;;;;;8.57;5.47;;;;;;;8.80;100.00;100985.91;5056120;28;20051;-66
2021/11/05 11:05:44;;;;;;;13.43;5.55;;;;;;;8.67;100.00;100990.88;5093904;28;20262;-66
2021/11/05 11:08:23;;;;;;;11.68;5.10;;;;;;;8.62;100.00;100990.22;5090082;28;20056;-68
2021/11/05 11:10:51;;;;;;;12.45;5.75;;;;;;;9.08;100.00;100988.13;5065385;28;20411;-64
2021/11/05 11:13:31;;;;;;;17.08;6.22;;;;;;;8.91;100.00;100988.88;5063448;28;20132;-66
2021/11/05 11:15:59;;;;;;;10.40;6.13;;;;;;;8.97;100.00;100999.13;5052647;28;20446;-66
2021/11/05 11:18:27;;;;;;;10.85;6.85;;;;;;;8.88;100.00;101003.03;5075184;28;20429;-68
2021/11/05 11:20:54;;;;;;;21.00;6.32;;;;;;;8.78;100.00;100999.13;5046994;28;20418;-65
2021/11/05 11:23:21;;;;;;;9.88;5.45;;;;;;;8.86;100.00;101009.25;5065015;28;20060;-67
2021/11/05 11:25:50;;;;;;;8.00;4.93;;;;;;;8.73;100.00;101018.59;5082892;28;20062;-66
2021/11/05 11:28:17;;;;;;;15.55;5.70;;;;;;;8.86;100.00;101017.13;5059543;28;20055;-67
2021/11/05 11:30:44;;;;;;;11.82;4.90;;;;;;;8.65;100.00;101018.13;5075236;28;20490;-66
2021/11/05 11:33:12;;;;;;;13.57;5.22;;;;;;;8.57;100.00;101021.06;5039836;28;20048;-66
2021/11/05 11:35:41;;;;;;;7.97;4.82;;;;;;;8.74;100.00;101018.56;5060090;28;20048;-67
2021/11/05 11:38:12;;;;;;;12.77;5.45;;;;;;;8.74;100.00;101022.97;5063323;28;20055;-66
2021/11/05 11:40:40;;;;;;;7.72;4.95;;;;;;;8.67;100.00;101027.63;5082466;28;20113;-66
2021/11/05 11:43:08;;;;;;;10.32;6.53;;;;;;;8.54;100.00;101027.31;5076715;28;20056;-66
2021/11/05 11:45:48;;;;;;;9.90;6.25;;;;;;;8.51;100.00;101034.44;5081313;28;20116;-66
2021/11/05 11:48:48;;;;;;;10.68;6.80;;;;;;;8.60;100.00;101034.03;5082784;28;20052;-66
2021/11/05 11:51:26;;;;;;;11.85;8.18;;;;;;;8.97;100.00;101041.16;5061880;28;20052;-67